sensor_id;sensor_type;location;lat;lon;timestamp;P1;P2;P0
72854;PMS7003;60991;51.278;22.550;2023-04-23T00:00:44;25.00;21.00;16.50
72854;PMS7003;60991;51.278;22.550;2023-04-23T00:02:17;25.25;24.25;16.50
72854;PMS7003;60991;51.278;22.550;2023-04-23T00:03:48;24.50;22.50;15.25
72854;PMS7003;60991;51.278;22.550;2023-04-23T00:05:19;27.75;25.25;17.75
72854;PMS7003;60991;51.278;22.550;2023-04-23T00:06:50;28.75;25.25;15.50
72854;PMS7003;60991;51.278;22.550;2023-04-23T00:08:21;27.00;23.25;15.25
72854;PMS7003;60991;51.278;22.550;2023-04-23T00:09:51;23.00;19.75;17.00
72854;PMS7003;60991;51.278;22.550;2023-04-23T00:11:26;25.00;22.75;15.00
72854;PMS7003;60991;51.278;22.550;2023-04-23T00:12:57;29.00;20.75;17.00
72854;PMS7003;60991;51.278;22.550;2023-04-23T00:14:27;26.75;23.50;16.00
72854;PMS7003;60991;51.278;22.550;2023-04-23T00:15:58;20.00;20.00;15.00
72854;PMS7003;60991;51.278;22.550;2023-04-23T00:17:29;26.00;24.75;17.25
72854;PMS7003;60991;51.278;22.550;2023-04-23T00:18:59;25.00;24.00;16.50
72854;PMS7003;60991;51.278;22.550;2023-04-23T00:20:29;24.50;23.25;15.50
72854;PMS7003;60991;51.278;22.550;2023-04-23T00:21:59;25.75;24.50;16.50
72854;PMS7003;60991;51.278;22.550;2023-04-23T00:23:30;32.25;23.50;16.00
72854;PMS7003;60991;51.278;22.550;2023-04-23T00:25:00;29.50;23.50;14.25
72854;PMS7003;60991;51.278;22.550;2023-04-23T00:26:30;26.75;24.25;15.50
72854;PMS7003;60991;51.278;22.550;2023-04-23T00:28:00;26.00;22.50;15.00
72854;PMS7003;60991;51.278;22.550;2023-04-23T00:29:30;25.00;24.25;16.50
72854;PMS7003;60991;51.278;22.550;2023-04-23T00:31:01;26.50;23.00;16.25
72854;PMS7003;60991;51.278;22.550;2023-04-23T00:32:31;26.25;20.50;15.00
72854;PMS7003;60991;51.278;22.550;2023-04-23T00:34:01;22.50;18.00;13.75
72854;PMS7003;60991;51.278;22.550;2023-04-23T00:35:32;25.50;21.25;17.00
72854;PMS7003;60991;51.278;22.550;2023-04-23T00:37:02;27.00;23.67;16.00
72854;PMS7003;60991;51.278;22.550;2023-04-23T00:38:32;26.25;23.25;16.00
72854;PMS7003;60991;51.278;22.550;2023-04-23T00:40:02;26.50;21.00;16.00
72854;PMS7003;60991;51.278;22.550;2023-04-23T00:41:33;29.75;28.25;20.50
72854;PMS7003;60991;51.278;22.550;2023-04-23T00:43:03;23.00;22.00;15.25
72854;PMS7003;60991;51.278;22.550;2023-04-23T00:44:34;26.25;24.75;17.25
72854;PMS7003;60991;51.278;22.550;2023-04-23T00:46:04;25.00;23.50;16.25
72854;PMS7003;60991;51.278;22.550;2023-04-23T00:47:35;28.00;24.50;18.00
72854;PMS7003;60991;51.278;22.550;2023-04-23T00:49:05;28.00;24.25;16.00
72854;PMS7003;60991;51.278;22.550;2023-04-23T00:50:35;29.75;24.00;16.75
72854;PMS7003;60991;51.278;22.550;2023-04-23T00:52:06;26.00;24.25;16.00
72854;PMS7003;60991;51.278;22.550;2023-04-23T00:53:36;26.25;24.25;19.00
72854;PMS7003;60991;51.278;22.550;2023-04-23T00:55:06;27.25;24.50;17.50
72854;PMS7003;60991;51.278;22.550;2023-04-23T00:56:37;32.00;26.50;14.25
72854;PMS7003;60991;51.278;22.550;2023-04-23T00:58:07;33.25;30.75;21.50
72854;PMS7003;60991;51.278;22.550;2023-04-23T00:59:38;26.75;25.25;16.25
72854;PMS7003;60991;51.278;22.550;2023-04-23T01:01:08;32.50;24.75;18.75
72854;PMS7003;60991;51.278;22.550;2023-04-23T01:02:39;37.25;29.25;19.00
72854;PMS7003;60991;51.278;22.550;2023-04-23T01:04:12;28.00;26.25;18.25
72854;PMS7003;60991;51.278;22.550;2023-04-23T01:05:45;33.75;29.00;18.00
72854;PMS7003;60991;51.278;22.550;2023-04-23T01:07:16;29.00;28.00;21.25
72854;PMS7003;60991;51.278;22.550;2023-04-23T01:08:46;29.00;25.00;18.00
72854;PMS7003;60991;51.278;22.550;2023-04-23T01:10:17;32.50;26.75;18.25
72854;PMS7003;60991;51.278;22.550;2023-04-23T01:11:47;28.50;25.00;17.25
72854;PMS7003;60991;51.278;22.550;2023-04-23T01:13:18;27.75;26.25;18.00
72854;PMS7003;60991;51.278;22.550;2023-04-23T01:14:49;33.50;28.50;17.00
72854;PMS7003;60991;51.278;22.550;2023-04-23T01:16:19;37.25;29.75;19.00
72854;PMS7003;60991;51.278;22.550;2023-04-23T01:17:50;27.50;24.25;16.50
72854;PMS7003;60991;51.278;22.550;2023-04-23T01:19:20;34.25;27.50;19.00
72854;PMS7003;60991;51.278;22.550;2023-04-23T01:20:50;28.75;26.25;19.00
72854;PMS7003;60991;51.278;22.550;2023-04-23T01:22:21;29.25;23.75;17.75
72854;PMS7003;60991;51.278;22.550;2023-04-23T01:23:51;28.25;24.00;16.75
72854;PMS7003;60991;51.278;22.550;2023-04-23T01:25:21;29.75;26.50;16.50
72854;PMS7003;60991;51.278;22.550;2023-04-23T01:26:52;24.25;22.50;18.25
72854;PMS7003;60991;51.278;22.550;2023-04-23T01:28:22;38.50;28.75;19.50
72854;PMS7003;60991;51.278;22.550;2023-04-23T01:29:53;25.75;21.00;13.75
72854;PMS7003;60991;51.278;22.550;2023-04-23T01:31:24;26.50;25.50;17.50
72854;PMS7003;60991;51.278;22.550;2023-04-23T01:32:55;35.50;28.75;17.75
72854;PMS7003;60991;51.278;22.550;2023-04-23T01:34:26;31.50;28.00;18.50
72854;PMS7003;60991;51.278;22.550;2023-04-23T01:35:58;31.50;27.50;18.00
72854;PMS7003;60991;51.278;22.550;2023-04-23T01:37:29;33.00;31.00;22.00
72854;PMS7003;60991;51.278;22.550;2023-04-23T01:39:01;33.00;32.50;22.00
72854;PMS7003;60991;51.278;22.550;2023-04-23T01:40:31;26.75;26.00;21.50
72854;PMS7003;60991;51.278;22.550;2023-04-23T01:42:01;44.00;33.75;22.75
72854;PMS7003;60991;51.278;22.550;2023-04-23T01:43:31;25.75;23.75;17.75
72854;PMS7003;60991;51.278;22.550;2023-04-23T01:45:02;32.00;28.75;19.75
72854;PMS7003;60991;51.278;22.550;2023-04-23T01:46:33;26.50;25.50;20.00
72854;PMS7003;60991;51.278;22.550;2023-04-23T01:48:03;29.75;29.25;20.75
72854;PMS7003;60991;51.278;22.550;2023-04-23T01:49:33;25.00;22.50;18.00
72854;PMS7003;60991;51.278;22.550;2023-04-23T01:51:04;30.50;29.00;17.00
72854;PMS7003;60991;51.278;22.550;2023-04-23T01:52:34;22.75;22.75;17.25
72854;PMS7003;60991;51.278;22.550;2023-04-23T01:54:04;27.75;25.75;20.75
72854;PMS7003;60991;51.278;22.550;2023-04-23T01:55:37;24.00;20.25;15.25
72854;PMS7003;60991;51.278;22.550;2023-04-23T01:57:09;26.25;24.25;18.00
72854;PMS7003;60991;51.278;22.550;2023-04-23T01:58:39;26.75;22.50;15.00
72854;PMS7003;60991;51.278;22.550;2023-04-23T02:00:10;25.00;19.25;14.50
72854;PMS7003;60991;51.278;22.550;2023-04-23T02:01:42;19.00;18.00;14.50
72854;PMS7003;60991;51.278;22.550;2023-04-23T02:03:13;26.25;21.50;17.25
72854;PMS7003;60991;51.278;22.550;2023-04-23T02:04:44;27.25;23.25;16.50
72854;PMS7003;60991;51.278;22.550;2023-04-23T02:06:14;22.50;21.25;16.50
72854;PMS7003;60991;51.278;22.550;2023-04-23T02:07:45;19.50;18.75;14.50
72854;PMS7003;60991;51.278;22.550;2023-04-23T02:09:17;15.50;14.00;12.00
72854;PMS7003;60991;51.278;22.550;2023-04-23T02:10:47;22.25;21.25;14.25
72854;PMS7003;60991;51.278;22.550;2023-04-23T02:12:17;15.75;14.00;12.00
72854;PMS7003;60991;51.278;22.550;2023-04-23T02:13:47;19.50;14.75;11.25
72854;PMS7003;60991;51.278;22.550;2023-04-23T02:15:18;17.00;14.00;12.00
72854;PMS7003;60991;51.278;22.550;2023-04-23T02:16:48;22.50;17.50;12.00
72854;PMS7003;60991;51.278;22.550;2023-04-23T02:18:18;16.50;13.75;11.50
72854;PMS7003;60991;51.278;22.550;2023-04-23T02:19:48;19.25;18.50;12.50
72854;PMS7003;60991;51.278;22.550;2023-04-23T02:21:19;1.50;1.25;0.00
72854;PMS7003;60991;51.278;22.550;2023-04-23T02:22:49;19.25;14.25;11.00
72854;PMS7003;60991;51.278;22.550;2023-04-23T02:24:19;13.75;12.50;9.50
72854;PMS7003;60991;51.278;22.550;2023-04-23T02:25:49;20.50;15.25;13.00
72854;PMS7003;60991;51.278;22.550;2023-04-23T02:27:20;18.25;16.25;13.00
72854;PMS7003;60991;51.278;22.550;2023-04-23T02:28:50;20.25;19.50;13.25
72854;PMS7003;60991;51.278;22.550;2023-04-23T02:30:21;15.00;13.00;10.00
72854;PMS7003;60991;51.278;22.550;2023-04-23T02:31:51;20.50;15.75;12.25
72854;PMS7003;60991;51.278;22.550;2023-04-23T02:33:21;20.25;17.25;12.75
72854;PMS7003;60991;51.278;22.550;2023-04-23T02:34:51;20.67;16.67;12.67
72854;PMS7003;60991;51.278;22.550;2023-04-23T02:36:21;21.00;17.00;12.00
72854;PMS7003;60991;51.278;22.550;2023-04-23T02:37:52;18.75;13.25;12.00
72854;PMS7003;60991;51.278;22.550;2023-04-23T02:39:23;16.75;14.00;12.00
72854;PMS7003;60991;51.278;22.550;2023-04-23T02:40:53;13.75;13.25;9.50
72854;PMS7003;60991;51.278;22.550;2023-04-23T02:42:23;20.00;18.00;13.00
72854;PMS7003;60991;51.278;22.550;2023-04-23T02:43:54;16.25;15.25;11.25
72854;PMS7003;60991;51.278;22.550;2023-04-23T02:45:24;18.50;15.50;11.25
72854;PMS7003;60991;51.278;22.550;2023-04-23T02:46:54;14.50;14.50;12.00
72854;PMS7003;60991;51.278;22.550;2023-04-23T02:48:24;22.50;17.50;12.75
72854;PMS7003;60991;51.278;22.550;2023-04-23T02:49:54;15.00;14.25;11.00
72854;PMS7003;60991;51.278;22.550;2023-04-23T02:51:25;17.00;15.00;13.00
72854;PMS7003;60991;51.278;22.550;2023-04-23T02:52:55;23.50;19.25;13.00
72854;PMS7003;60991;51.278;22.550;2023-04-23T02:54:25;22.25;14.75;11.75
72854;PMS7003;60991;51.278;22.550;2023-04-23T02:55:55;14.75;14.75;12.00
72854;PMS7003;60991;51.278;22.550;2023-04-23T02:57:26;19.25;17.00;13.25
72854;PMS7003;60991;51.278;22.550;2023-04-23T02:58:56;22.50;18.50;12.25
72854;PMS7003;60991;51.278;22.550;2023-04-23T03:00:27;22.00;15.50;12.75
72854;PMS7003;60991;51.278;22.550;2023-04-23T03:01:57;17.25;15.25;11.75
72854;PMS7003;60991;51.278;22.550;2023-04-23T03:03:28;17.50;15.50;12.50
72854;PMS7003;60991;51.278;22.550;2023-04-23T03:05:00;18.00;17.75;12.75
72854;PMS7003;60991;51.278;22.550;2023-04-23T03:06:30;15.50;14.00;12.00
72854;PMS7003;60991;51.278;22.550;2023-04-23T03:08:00;23.75;19.25;13.25
72854;PMS7003;60991;51.278;22.550;2023-04-23T03:09:30;20.50;17.00;13.50
72854;PMS7003;60991;51.278;22.550;2023-04-23T03:11:01;21.50;20.00;12.25
72854;PMS7003;60991;51.278;22.550;2023-04-23T03:12:31;16.75;14.75;11.00
72854;PMS7003;60991;51.278;22.550;2023-04-23T03:14:01;19.25;18.00;11.50
72854;PMS7003;60991;51.278;22.550;2023-04-23T03:15:31;23.75;19.25;15.00
72854;PMS7003;60991;51.278;22.550;2023-04-23T03:17:02;21.00;20.50;13.25
72854;PMS7003;60991;51.278;22.550;2023-04-23T03:18:32;20.50;16.25;12.00
72854;PMS7003;60991;51.278;22.550;2023-04-23T03:20:02;23.75;20.50;14.50
72854;PMS7003;60991;51.278;22.550;2023-04-23T03:21:33;23.00;22.00;16.50
72854;PMS7003;60991;51.278;22.550;2023-04-23T03:23:03;22.33;21.33;14.00
72854;PMS7003;60991;51.278;22.550;2023-04-23T03:24:34;26.75;25.00;18.25
72854;PMS7003;60991;51.278;22.550;2023-04-23T03:26:04;20.25;20.00;12.75
72854;PMS7003;60991;51.278;22.550;2023-04-23T03:27:34;22.00;20.25;17.50
72854;PMS7003;60991;51.278;22.550;2023-04-23T03:29:04;19.75;17.75;12.50
72854;PMS7003;60991;51.278;22.550;2023-04-23T03:30:35;20.67;19.67;15.00
72854;PMS7003;60991;51.278;22.550;2023-04-23T03:32:05;31.25;26.75;16.00
72854;PMS7003;60991;51.278;22.550;2023-04-23T03:33:35;20.33;19.67;13.67
72854;PMS7003;60991;51.278;22.550;2023-04-23T03:35:05;20.67;18.00;11.67
72854;PMS7003;60991;51.278;22.550;2023-04-23T03:36:36;22.75;20.00;12.00
72854;PMS7003;60991;51.278;22.550;2023-04-23T03:38:06;25.25;20.50;13.50
72854;PMS7003;60991;51.278;22.550;2023-04-23T03:39:36;22.33;18.00;13.00
72854;PMS7003;60991;51.278;22.550;2023-04-23T03:41:06;18.00;14.75;13.00
72854;PMS7003;60991;51.278;22.550;2023-04-23T03:42:37;20.75;18.00;14.00
72854;PMS7003;60991;51.278;22.550;2023-04-23T03:44:07;22.50;19.00;13.25
72854;PMS7003;60991;51.278;22.550;2023-04-23T03:45:37;24.67;18.00;11.67
72854;PMS7003;60991;51.278;22.550;2023-04-23T03:47:07;25.33;22.67;17.00
72854;PMS7003;60991;51.278;22.550;2023-04-23T03:48:37;25.67;21.33;16.67
72854;PMS7003;60991;51.278;22.550;2023-04-23T03:50:08;24.67;23.33;16.33
72854;PMS7003;60991;51.278;22.550;2023-04-23T03:51:38;28.25;23.75;15.00
72854;PMS7003;60991;51.278;22.550;2023-04-23T03:53:08;24.50;24.25;18.00
72854;PMS7003;60991;51.278;22.550;2023-04-23T03:54:39;33.00;24.67;15.33
72854;PMS7003;60991;51.278;22.550;2023-04-23T03:56:09;22.25;19.50;13.50
72854;PMS7003;60991;51.278;22.550;2023-04-23T03:57:39;29.00;26.75;18.25
72854;PMS7003;60991;51.278;22.550;2023-04-23T03:59:09;34.00;25.00;19.33
72854;PMS7003;60991;51.278;22.550;2023-04-23T04:00:39;30.00;27.00;17.33
72854;PMS7003;60991;51.278;22.550;2023-04-23T04:02:10;21.25;21.25;12.75
72854;PMS7003;60991;51.278;22.550;2023-04-23T04:03:40;22.33;22.33;15.67
72854;PMS7003;60991;51.278;22.550;2023-04-23T04:05:10;28.33;21.33;13.33
72854;PMS7003;60991;51.278;22.550;2023-04-23T04:06:40;27.75;17.75;13.00
72854;PMS7003;60991;51.278;22.550;2023-04-23T04:08:10;25.50;22.25;16.50
72854;PMS7003;60991;51.278;22.550;2023-04-23T04:09:41;23.50;22.00;17.25
72854;PMS7003;60991;51.278;22.550;2023-04-23T04:11:11;25.50;21.00;14.75
72854;PMS7003;60991;51.278;22.550;2023-04-23T04:12:41;19.75;17.00;11.00
72854;PMS7003;60991;51.278;22.550;2023-04-23T04:14:11;33.75;28.50;20.75
72854;PMS7003;60991;51.278;22.550;2023-04-23T04:15:42;29.00;24.75;17.50
72854;PMS7003;60991;51.278;22.550;2023-04-23T04:17:12;28.00;22.67;17.00
72854;PMS7003;60991;51.278;22.550;2023-04-23T04:18:42;30.67;29.67;19.67
72854;PMS7003;60991;51.278;22.550;2023-04-23T04:20:13;33.75;28.00;18.25
72854;PMS7003;60991;51.278;22.550;2023-04-23T04:21:43;33.75;31.25;20.25
72854;PMS7003;60991;51.278;22.550;2023-04-23T04:23:13;28.00;25.00;19.00
72854;PMS7003;60991;51.278;22.550;2023-04-23T04:24:43;30.00;24.00;14.00
72854;PMS7003;60991;51.278;22.550;2023-04-23T04:26:14;27.00;20.50;14.25
72854;PMS7003;60991;51.278;22.550;2023-04-23T04:27:44;26.00;22.33;19.00
72854;PMS7003;60991;51.278;22.550;2023-04-23T04:29:14;28.33;25.33;18.00
72854;PMS7003;60991;51.278;22.550;2023-04-23T04:30:44;29.75;27.75;18.00
72854;PMS7003;60991;51.278;22.550;2023-04-23T04:32:14;20.75;20.75;14.75
72854;PMS7003;60991;51.278;22.550;2023-04-23T04:33:45;31.75;23.25;16.25
72854;PMS7003;60991;51.278;22.550;2023-04-23T04:35:15;26.75;21.50;17.00
72854;PMS7003;60991;51.278;22.550;2023-04-23T04:36:45;29.50;23.75;18.00
72854;PMS7003;60991;51.278;22.550;2023-04-23T04:38:15;25.75;21.25;17.00
72854;PMS7003;60991;51.278;22.550;2023-04-23T04:39:48;21.50;19.75;14.00
72854;PMS7003;60991;51.278;22.550;2023-04-23T04:41:18;22.25;19.25;15.50
72854;PMS7003;60991;51.278;22.550;2023-04-23T04:42:49;26.25;22.50;16.25
72854;PMS7003;60991;51.278;22.550;2023-04-23T04:44:19;26.50;22.50;14.50
72854;PMS7003;60991;51.278;22.550;2023-04-23T04:45:49;27.25;23.75;14.50
72854;PMS7003;60991;51.278;22.550;2023-04-23T04:47:20;27.00;19.00;14.00
72854;PMS7003;60991;51.278;22.550;2023-04-23T04:48:50;22.50;18.50;12.75
72854;PMS7003;60991;51.278;22.550;2023-04-23T04:50:20;18.75;16.25;12.75
72854;PMS7003;60991;51.278;22.550;2023-04-23T04:51:50;18.00;18.00;13.25
72854;PMS7003;60991;51.278;22.550;2023-04-23T04:53:21;27.50;22.50;14.50
72854;PMS7003;60991;51.278;22.550;2023-04-23T04:54:51;19.25;18.00;14.00
72854;PMS7003;60991;51.278;22.550;2023-04-23T04:56:21;18.33;15.67;11.00
72854;PMS7003;60991;51.278;22.550;2023-04-23T04:57:52;29.00;24.75;15.00
72854;PMS7003;60991;51.278;22.550;2023-04-23T04:59:22;24.25;18.00;13.75
72854;PMS7003;60991;51.278;22.550;2023-04-23T05:00:53;22.50;18.75;12.25
72854;PMS7003;60991;51.278;22.550;2023-04-23T05:02:24;18.50;16.25;13.00
72854;PMS7003;60991;51.278;22.550;2023-04-23T05:03:54;19.75;16.00;12.00
72854;PMS7003;60991;51.278;22.550;2023-04-23T05:05:28;12.00;10.25;10.00
72854;PMS7003;60991;51.278;22.550;2023-04-23T05:06:58;23.50;19.00;13.00
72854;PMS7003;60991;51.278;22.550;2023-04-23T05:08:28;20.75;19.00;12.25
72854;PMS7003;60991;51.278;22.550;2023-04-23T05:09:58;16.00;14.25;10.75
72854;PMS7003;60991;51.278;22.550;2023-04-23T05:11:29;17.75;17.75;12.25
72854;PMS7003;60991;51.278;22.550;2023-04-23T05:12:59;22.00;15.75;12.00
72854;PMS7003;60991;51.278;22.550;2023-04-23T05:14:29;21.00;16.50;12.00
72854;PMS7003;60991;51.278;22.550;2023-04-23T05:15:59;24.00;16.00;10.33
72854;PMS7003;60991;51.278;22.550;2023-04-23T05:17:30;19.00;15.75;12.00
72854;PMS7003;60991;51.278;22.550;2023-04-23T05:19:00;14.75;14.00;12.00
72854;PMS7003;60991;51.278;22.550;2023-04-23T05:20:30;15.25;14.50;11.75
72854;PMS7003;60991;51.278;22.550;2023-04-23T05:22:00;17.25;16.25;12.00
72854;PMS7003;60991;51.278;22.550;2023-04-23T05:23:31;21.00;14.50;10.75
72854;PMS7003;60991;51.278;22.550;2023-04-23T05:25:02;14.00;13.25;10.75
72854;PMS7003;60991;51.278;22.550;2023-04-23T05:26:33;16.75;14.00;11.25
72854;PMS7003;60991;51.278;22.550;2023-04-23T05:28:04;14.00;12.75;10.75
72854;PMS7003;60991;51.278;22.550;2023-04-23T05:29:34;12.50;12.00;9.75
72854;PMS7003;60991;51.278;22.550;2023-04-23T05:31:04;13.25;11.00;7.25
72854;PMS7003;60991;51.278;22.550;2023-04-23T05:32:34;0.75;0.75;0.00
72854;PMS7003;60991;51.278;22.550;2023-04-23T05:34:05;13.50;12.50;10.00
72854;PMS7003;60991;51.278;22.550;2023-04-23T05:35:36;12.50;12.50;10.25
72854;PMS7003;60991;51.278;22.550;2023-04-23T05:37:06;15.00;13.75;11.25
72854;PMS7003;60991;51.278;22.550;2023-04-23T05:38:37;15.75;14.25;11.00
72854;PMS7003;60991;51.278;22.550;2023-04-23T05:40:08;18.00;14.25;10.50
72854;PMS7003;60991;51.278;22.550;2023-04-23T05:41:38;15.00;14.50;11.75
72854;PMS7003;60991;51.278;22.550;2023-04-23T05:43:08;16.00;13.50;11.00
72854;PMS7003;60991;51.278;22.550;2023-04-23T05:44:39;17.50;13.00;10.00
72854;PMS7003;60991;51.278;22.550;2023-04-23T05:46:09;15.75;11.50;9.75
72854;PMS7003;60991;51.278;22.550;2023-04-23T05:47:39;16.25;14.25;10.25
72854;PMS7003;60991;51.278;22.550;2023-04-23T05:49:09;16.00;13.75;10.50
72854;PMS7003;60991;51.278;22.550;2023-04-23T05:50:39;16.25;13.50;11.00
72854;PMS7003;60991;51.278;22.550;2023-04-23T05:52:10;18.00;16.00;11.25
72854;PMS7003;60991;51.278;22.550;2023-04-23T05:53:40;18.50;16.75;12.00
72854;PMS7003;60991;51.278;22.550;2023-04-23T05:55:10;15.33;14.33;11.00
72854;PMS7003;60991;51.278;22.550;2023-04-23T05:56:41;17.50;15.00;12.00
72854;PMS7003;60991;51.278;22.550;2023-04-23T05:58:11;15.50;13.00;10.00
72854;PMS7003;60991;51.278;22.550;2023-04-23T05:59:41;17.00;15.75;12.00
72854;PMS7003;60991;51.278;22.550;2023-04-23T06:01:11;15.75;14.00;11.00
72854;PMS7003;60991;51.278;22.550;2023-04-23T06:02:42;14.25;13.00;9.25
72854;PMS7003;60991;51.278;22.550;2023-04-23T06:04:12;14.00;14.00;8.50
72854;PMS7003;60991;51.278;22.550;2023-04-23T06:05:43;14.50;14.50;12.25
72854;PMS7003;60991;51.278;22.550;2023-04-23T06:07:13;22.75;17.00;13.00
72854;PMS7003;60991;51.278;22.550;2023-04-23T06:08:43;18.75;17.50;12.75
72854;PMS7003;60991;51.278;22.550;2023-04-23T06:10:13;16.00;13.50;10.00
72854;PMS7003;60991;51.278;22.550;2023-04-23T06:11:44;18.00;12.75;10.25
72854;PMS7003;60991;51.278;22.550;2023-04-23T06:13:14;14.25;14.25;9.75
72854;PMS7003;60991;51.278;22.550;2023-04-23T06:14:45;14.50;13.75;11.00
72854;PMS7003;60991;51.278;22.550;2023-04-23T06:16:15;15.25;13.25;8.75
72854;PMS7003;60991;51.278;22.550;2023-04-23T06:17:45;9.25;8.50;6.00
72854;PMS7003;60991;51.278;22.550;2023-04-23T06:19:15;13.25;13.00;9.00
72854;PMS7003;60991;51.278;22.550;2023-04-23T06:20:46;17.75;13.75;10.75
72854;PMS7003;60991;51.278;22.550;2023-04-23T06:22:16;14.75;13.00;9.00
72854;PMS7003;60991;51.278;22.550;2023-04-23T06:23:46;9.50;8.75;6.75
72854;PMS7003;60991;51.278;22.550;2023-04-23T06:25:17;13.00;11.50;9.75
72854;PMS7003;60991;51.278;22.550;2023-04-23T06:26:47;15.00;12.25;9.00
72854;PMS7003;60991;51.278;22.550;2023-04-23T06:28:17;13.25;12.50;8.25
72854;PMS7003;60991;51.278;22.550;2023-04-23T06:29:47;15.00;11.50;8.00
72854;PMS7003;60991;51.278;22.550;2023-04-23T06:31:18;8.00;8.00;7.50
72854;PMS7003;60991;51.278;22.550;2023-04-23T06:32:48;13.00;10.75;9.00
72854;PMS7003;60991;51.278;22.550;2023-04-23T06:34:18;15.25;11.50;10.00
72854;PMS7003;60991;51.278;22.550;2023-04-23T06:35:48;7.75;7.25;6.00
72854;PMS7003;60991;51.278;22.550;2023-04-23T06:37:19;11.50;10.00;8.25
72854;PMS7003;60991;51.278;22.550;2023-04-23T06:38:49;10.25;9.25;7.00
72854;PMS7003;60991;51.278;22.550;2023-04-23T06:40:19;12.75;8.50;6.50
72854;PMS7003;60991;51.278;22.550;2023-04-23T06:41:49;9.00;9.00;8.00
72854;PMS7003;60991;51.278;22.550;2023-04-23T06:43:20;10.75;9.75;8.50
72854;PMS7003;60991;51.278;22.550;2023-04-23T06:44:50;10.50;9.00;7.50
72854;PMS7003;60991;51.278;22.550;2023-04-23T06:46:20;11.25;9.00;8.00
72854;PMS7003;60991;51.278;22.550;2023-04-23T06:47:51;7.25;7.25;6.00
72854;PMS7003;60991;51.278;22.550;2023-04-23T06:49:21;6.75;6.75;6.50
72854;PMS7003;60991;51.278;22.550;2023-04-23T06:50:51;9.00;7.75;6.75
72854;PMS7003;60991;51.278;22.550;2023-04-23T06:52:21;15.75;8.00;7.00
72854;PMS7003;60991;51.278;22.550;2023-04-23T06:53:52;11.50;9.25;6.75
72854;PMS7003;60991;51.278;22.550;2023-04-23T06:55:22;9.00;7.50;6.00
72854;PMS7003;60991;51.278;22.550;2023-04-23T06:56:52;9.00;7.00;6.50
72854;PMS7003;60991;51.278;22.550;2023-04-23T06:58:23;7.75;6.50;5.00
72854;PMS7003;60991;51.278;22.550;2023-04-23T06:59:53;7.75;7.75;6.25
72854;PMS7003;60991;51.278;22.550;2023-04-23T07:01:23;5.25;5.00;3.50
72854;PMS7003;60991;51.278;22.550;2023-04-23T07:02:53;7.00;6.75;5.75
72854;PMS7003;60991;51.278;22.550;2023-04-23T07:04:24;6.00;6.00;5.00
72854;PMS7003;60991;51.278;22.550;2023-04-23T07:05:54;8.50;5.50;4.25
72854;PMS7003;60991;51.278;22.550;2023-04-23T07:07:24;8.75;7.75;6.75
72854;PMS7003;60991;51.278;22.550;2023-04-23T07:08:54;7.00;7.00;5.50
72854;PMS7003;60991;51.278;22.550;2023-04-23T07:10:24;9.50;7.75;6.75
72854;PMS7003;60991;51.278;22.550;2023-04-23T07:11:55;9.25;7.25;6.00
72854;PMS7003;60991;51.278;22.550;2023-04-23T07:13:25;7.25;7.25;5.00
72854;PMS7003;60991;51.278;22.550;2023-04-23T07:14:55;7.50;7.00;5.25
72854;PMS7003;60991;51.278;22.550;2023-04-23T07:16:26;6.50;6.50;4.75
72854;PMS7003;60991;51.278;22.550;2023-04-23T07:17:56;7.00;7.00;6.25
72854;PMS7003;60991;51.278;22.550;2023-04-23T07:19:26;4.50;4.50;4.25
72854;PMS7003;60991;51.278;22.550;2023-04-23T07:20:56;4.25;4.00;3.75
72854;PMS7003;60991;51.278;22.550;2023-04-23T07:22:27;5.00;4.25;4.25
72854;PMS7003;60991;51.278;22.550;2023-04-23T07:23:57;3.50;3.50;3.00
72854;PMS7003;60991;51.278;22.550;2023-04-23T07:25:30;7.50;6.00;5.00
72854;PMS7003;60991;51.278;22.550;2023-04-23T07:27:01;8.00;5.00;4.25
72854;PMS7003;60991;51.278;22.550;2023-04-23T07:28:32;6.00;6.00;5.00
72854;PMS7003;60991;51.278;22.550;2023-04-23T07:30:02;3.75;3.75;3.75
72854;PMS7003;60991;51.278;22.550;2023-04-23T07:31:33;5.00;5.00;4.25
72854;PMS7003;60991;51.278;22.550;2023-04-23T07:33:03;5.00;5.00;4.00
72854;PMS7003;60991;51.278;22.550;2023-04-23T07:34:33;5.00;5.00;4.00
72854;PMS7003;60991;51.278;22.550;2023-04-23T07:36:04;3.00;3.00;2.75
72854;PMS7003;60991;51.278;22.550;2023-04-23T07:37:34;6.00;5.00;4.75
72854;PMS7003;60991;51.278;22.550;2023-04-23T07:39:04;5.00;5.00;5.00
72854;PMS7003;60991;51.278;22.550;2023-04-23T07:40:35;5.25;5.25;4.00
72854;PMS7003;60991;51.278;22.550;2023-04-23T07:42:05;6.25;5.25;4.25
72854;PMS7003;60991;51.278;22.550;2023-04-23T07:43:35;4.50;4.50;3.00
72854;PMS7003;60991;51.278;22.550;2023-04-23T07:45:07;5.50;5.25;4.75
72854;PMS7003;60991;51.278;22.550;2023-04-23T07:46:38;5.50;5.50;5.00
72854;PMS7003;60991;51.278;22.550;2023-04-23T07:48:08;4.75;4.50;3.50
72854;PMS7003;60991;51.278;22.550;2023-04-23T07:49:38;4.00;4.00;4.00
72854;PMS7003;60991;51.278;22.550;2023-04-23T07:51:09;5.00;5.00;4.00
72854;PMS7003;60991;51.278;22.550;2023-04-23T07:52:39;4.00;4.00;3.75
72854;PMS7003;60991;51.278;22.550;2023-04-23T07:54:10;4.75;3.25;3.25
72854;PMS7003;60991;51.278;22.550;2023-04-23T07:55:40;8.50;6.50;4.75
72854;PMS7003;60991;51.278;22.550;2023-04-23T07:57:10;3.75;3.75;3.00
72854;PMS7003;60991;51.278;22.550;2023-04-23T07:58:40;4.50;3.00;2.25
72854;PMS7003;60991;51.278;22.550;2023-04-23T08:00:11;5.00;4.00;3.00
72854;PMS7003;60991;51.278;22.550;2023-04-23T08:01:41;4.00;4.00;4.00
72854;PMS7003;60991;51.278;22.550;2023-04-23T08:03:12;6.00;4.50;4.00
72854;PMS7003;60991;51.278;22.550;2023-04-23T08:04:42;4.75;4.00;3.50
72854;PMS7003;60991;51.278;22.550;2023-04-23T08:06:12;3.00;1.75;1.75
72854;PMS7003;60991;51.278;22.550;2023-04-23T08:07:42;5.25;4.00;3.75
72854;PMS7003;60991;51.278;22.550;2023-04-23T08:09:13;4.50;4.50;3.00
72854;PMS7003;60991;51.278;22.550;2023-04-23T08:10:44;6.00;5.00;5.00
72854;PMS7003;60991;51.278;22.550;2023-04-23T08:12:14;4.00;4.00;3.25
72854;PMS7003;60991;51.278;22.550;2023-04-23T08:13:44;3.75;3.75;3.50
72854;PMS7003;60991;51.278;22.550;2023-04-23T08:15:15;7.00;4.00;4.00
72854;PMS7003;60991;51.278;22.550;2023-04-23T08:16:45;5.00;4.25;3.75
72854;PMS7003;60991;51.278;22.550;2023-04-23T08:18:15;5.75;4.75;3.75
72854;PMS7003;60991;51.278;22.550;2023-04-23T08:19:47;3.00;3.00;3.00
72854;PMS7003;60991;51.278;22.550;2023-04-23T08:21:17;4.00;4.00;3.00
72854;PMS7003;60991;51.278;22.550;2023-04-23T08:22:48;5.00;4.75;4.00
72854;PMS7003;60991;51.278;22.550;2023-04-23T08:24:20;7.00;5.00;4.00